createdAt,value
2023-03-01T00:01:05.506Z,-1.18
2023-03-01T00:03:33.912Z,-1.28
2023-03-01T00:06:01.169Z,-1.17
2023-03-01T00:08:28.466Z,-1.26
2023-03-01T00:11:06.318Z,-1.15
2023-03-01T00:13:33.351Z,-1.09
2023-03-01T00:16:00.114Z,-1.19
2023-03-01T00:18:26.923Z,-1.41
2023-03-01T00:20:55.216Z,-1.16
2023-03-01T00:23:22.583Z,-1.24
2023-03-01T00:25:49.544Z,-1.30
2023-03-01T00:28:17.136Z,-1.28
2023-03-01T00:30:43.957Z,-1.17
2023-03-01T00:33:10.637Z,-1.34
2023-03-01T00:35:37.762Z,-1.40
2023-03-01T00:38:05.098Z,-1.34
2023-03-01T00:40:33.634Z,-1.62
2023-03-01T00:43:00.242Z,-1.57
2023-03-01T00:45:27.213Z,-1.52
2023-03-01T00:47:54.316Z,-1.52
2023-03-01T00:50:21.494Z,-1.50
2023-03-01T00:52:48.105Z,-1.55
2023-03-01T00:55:14.929Z,-1.57
2023-03-01T00:57:41.657Z,-1.66
2023-03-01T01:00:10.724Z,-1.54
2023-03-01T01:02:38.228Z,-1.55
2023-03-01T01:05:05.807Z,-1.46
2023-03-01T01:07:32.409Z,-1.56
2023-03-01T01:09:59.150Z,-1.65
2023-03-01T01:12:25.817Z,-1.71
2023-03-01T01:14:52.634Z,-1.82
2023-03-01T01:17:19.254Z,-1.83
2023-03-01T01:19:45.905Z,-1.82
2023-03-01T01:22:12.634Z,-1.76
2023-03-01T01:24:39.255Z,-1.81
2023-03-01T01:27:05.904Z,-1.88
2023-03-01T01:29:32.527Z,-2.00
2023-03-01T01:31:59.204Z,-2.00
2023-03-01T01:34:25.920Z,-2.04
2023-03-01T01:36:56.722Z,-2.06
2023-03-01T01:39:23.690Z,-2.17
2023-03-01T01:41:50.941Z,-2.32
2023-03-01T01:44:24.587Z,-2.36
2023-03-01T01:47:18.447Z,-2.26
2023-03-01T01:49:48.783Z,-2.45
2023-03-01T01:52:19.549Z,-2.34
2023-03-01T01:54:51.983Z,-2.30
2023-03-01T01:57:22.271Z,-2.23
2023-03-01T01:59:56.567Z,-2.21
2023-03-01T02:02:23.379Z,-2.19
2023-03-01T02:04:55.477Z,-2.18
2023-03-01T02:07:24.064Z,-2.34
2023-03-01T02:09:53.569Z,-2.17
2023-03-01T02:12:22.099Z,-2.15
2023-03-01T02:14:48.731Z,-2.24
2023-03-01T02:17:17.519Z,-2.14
2023-03-01T02:20:30.712Z,-2.26
2023-03-01T02:22:57.347Z,-2.20
2023-03-01T02:25:47.317Z,-2.50
2023-03-01T02:28:38.450Z,-2.39
2023-03-01T02:31:26.520Z,-2.43
2023-03-01T02:33:54.367Z,-2.23
2023-03-01T02:36:24.491Z,-2.35
2023-03-01T02:38:53.416Z,-2.48
2023-03-01T02:41:21.469Z,-2.22
2023-03-01T02:43:48.420Z,-2.16
2023-03-01T02:46:25.393Z,-2.32
2023-03-01T02:48:55.017Z,-2.39
2023-03-01T02:52:20.382Z,-2.12
2023-03-01T02:55:05.494Z,-2.09
2023-03-01T02:57:33.569Z,-2.23
2023-03-01T03:00:08.280Z,-2.16
2023-03-01T03:02:38.618Z,-2.20
2023-03-01T03:05:09.481Z,-2.27
2023-03-01T03:07:38.404Z,-2.18
2023-03-01T03:10:09.059Z,-2.16
2023-03-01T03:12:35.684Z,-2.11
2023-03-01T03:15:02.374Z,-2.12
2023-03-01T03:17:29.013Z,-2.22
2023-03-01T03:19:55.959Z,-2.17
2023-03-01T03:22:22.589Z,-2.31
2023-03-01T03:24:49.337Z,-2.26
2023-03-01T03:27:15.934Z,-2.23
2023-03-01T03:29:42.594Z,-2.22
2023-03-01T03:32:09.187Z,-2.20
2023-03-01T03:34:35.836Z,-2.22
2023-03-01T03:37:02.506Z,-2.34
2023-03-01T03:39:30.114Z,-2.54
2023-03-01T03:41:56.820Z,-2.25
2023-03-01T03:44:23.453Z,-2.29
2023-03-01T03:46:50.259Z,-2.18
2023-03-01T03:49:16.972Z,-2.28
2023-03-01T03:51:43.529Z,-2.53
2023-03-01T03:54:10.236Z,-2.55
2023-03-01T03:56:37.650Z,-2.50
2023-03-01T03:59:07.006Z,-2.58
2023-03-01T04:01:33.710Z,-2.57
2023-03-01T04:04:05.360Z,-2.48
2023-03-01T04:06:32.307Z,-2.67
2023-03-01T04:09:01.406Z,-2.48
2023-03-01T04:11:28.112Z,-2.47
2023-03-01T04:13:56.855Z,-2.51
2023-03-01T04:16:24.717Z,-2.60
2023-03-01T04:18:51.893Z,-2.59
2023-03-01T04:21:18.541Z,-2.53
2023-03-01T04:23:45.258Z,-2.61
2023-03-01T04:26:11.990Z,-2.71
2023-03-01T04:28:41.605Z,-2.66
2023-03-01T04:31:17.878Z,-2.69
2023-03-01T04:33:46.566Z,-2.52
2023-03-01T04:36:14.675Z,-2.58
2023-03-01T04:38:42.149Z,-2.74
2023-03-01T04:41:12.239Z,-2.80
2023-03-01T04:43:39.229Z,-2.66
2023-03-01T04:46:10.621Z,-2.72
2023-03-01T04:48:38.424Z,-2.74
2023-03-01T04:51:06.912Z,-2.62
2023-03-01T04:53:34.124Z,-2.67
2023-03-01T04:56:00.684Z,-2.66
2023-03-01T04:58:28.181Z,-2.77
2023-03-01T05:00:54.947Z,-2.77
2023-03-01T05:03:22.360Z,-2.81
2023-03-01T05:05:51.509Z,-2.71
2023-03-01T05:08:18.695Z,-2.71
2023-03-01T05:10:47.467Z,-2.82
2023-03-01T05:13:14.780Z,-2.85
2023-03-01T05:15:41.448Z,-2.86
2023-03-01T05:18:12.478Z,-2.84
2023-03-01T05:20:39.749Z,-2.59
2023-03-01T05:23:06.907Z,-3.02
2023-03-01T05:25:34.872Z,-2.82
2023-03-01T05:28:05.585Z,-2.93
2023-03-01T05:30:34.284Z,-2.84
2023-03-01T05:33:01.920Z,-2.96
2023-03-01T05:35:29.279Z,-2.76
2023-03-01T05:37:55.921Z,-2.82
2023-03-01T05:40:25.249Z,-2.86
2023-03-01T05:42:55.717Z,-2.77
2023-03-01T05:45:24.085Z,-2.74
2023-03-01T05:47:51.434Z,-2.86
2023-03-01T05:50:20.845Z,-3.03
2023-03-01T05:52:49.637Z,-2.93
2023-03-01T05:55:21.098Z,-2.81
2023-03-01T05:57:48.206Z,-2.88
2023-03-01T06:00:16.922Z,-2.82
2023-03-01T06:02:43.542Z,-2.73
2023-03-01T06:05:11.593Z,-2.63
2023-03-01T06:07:38.360Z,-2.69
2023-03-01T06:10:06.779Z,-2.83
2023-03-01T06:12:34.721Z,-2.82
2023-03-01T06:15:01.968Z,-2.85
2023-03-01T06:17:36.780Z,-2.83
2023-03-01T06:20:04.371Z,-2.83
2023-03-01T06:22:30.989Z,-2.70
2023-03-01T06:24:57.660Z,-2.74
2023-03-01T06:27:24.455Z,-2.81
2023-03-01T06:29:54.617Z,-2.89
2023-03-01T06:32:21.995Z,-2.82
2023-03-01T06:34:48.760Z,-2.81
2023-03-01T06:37:15.717Z,-2.76
2023-03-01T06:39:42.557Z,-2.76
2023-03-01T06:42:11.188Z,-2.51
2023-03-01T06:44:38.421Z,-2.68
2023-03-01T06:47:05.477Z,-2.70
2023-03-01T06:49:32.123Z,-2.74
2023-03-01T06:51:58.796Z,-2.76
2023-03-01T06:54:27.036Z,-2.62
2023-03-01T06:56:54.512Z,-2.56
2023-03-01T06:59:21.708Z,-2.47
2023-03-01T07:01:48.613Z,-2.39
2023-03-01T07:04:15.475Z,-2.57
2023-03-01T07:06:42.146Z,-2.35
2023-03-01T07:09:09.024Z,-2.29
2023-03-01T07:11:35.634Z,-2.20
2023-03-01T07:14:02.311Z,-2.03
2023-03-01T07:16:29.098Z,-1.97
2023-03-01T07:18:55.873Z,-1.75
2023-03-01T07:21:22.569Z,-1.61
2023-03-01T07:23:50.162Z,-1.48
2023-03-01T07:26:16.870Z,-1.42
2023-03-01T07:28:43.407Z,-1.36
2023-03-01T07:31:10.102Z,-1.20
2023-03-01T07:33:36.723Z,-1.11
2023-03-01T07:36:05.270Z,-0.97
2023-03-01T07:38:32.502Z,-0.93
2023-03-01T07:41:04.384Z,-0.85
2023-03-01T07:43:31.688Z,-0.77
2023-03-01T07:46:05.491Z,-0.65
2023-03-01T07:48:32.548Z,-0.84
2023-03-01T07:51:00.866Z,-0.68
2023-03-01T07:53:28.332Z,-0.55
2023-03-01T07:56:06.840Z,-0.54
2023-03-01T07:58:36.192Z,-0.40
2023-03-01T08:01:04.415Z,-0.44
2023-03-01T08:03:31.042Z,-0.38
2023-03-01T08:06:00.891Z,-0.43
2023-03-01T08:08:27.703Z,-0.22
2023-03-01T08:10:58.086Z,-0.10
2023-03-01T08:13:25.137Z,-0.19
2023-03-01T08:15:52.250Z,-0.10
2023-03-01T08:18:19.944Z,0.01
2023-03-01T08:20:47.307Z,0.24
2023-03-01T08:23:14.044Z,0.38
2023-03-01T08:25:41.006Z,0.51
2023-03-01T08:28:07.551Z,0.40
2023-03-01T08:30:34.398Z,0.52
2023-03-01T08:33:01.280Z,0.51
2023-03-01T08:35:28.328Z,0.50
2023-03-01T08:37:55.160Z,0.74
2023-03-01T08:40:21.871Z,0.91
2023-03-01T08:42:48.615Z,0.80
2023-03-01T08:45:19.781Z,0.95
2023-03-01T08:47:46.633Z,1.04
2023-03-01T08:50:13.424Z,1.11
2023-03-01T08:52:40.137Z,1.37
2023-03-01T08:55:07.973Z,1.30
2023-03-01T08:57:35.707Z,1.42
2023-03-01T09:00:02.785Z,1.38
2023-03-01T09:02:29.577Z,1.72
2023-03-01T09:04:56.315Z,1.83
2023-03-01T09:07:22.977Z,1.98
2023-03-01T09:09:49.625Z,1.88
2023-03-01T09:12:16.321Z,2.15
2023-03-01T09:14:43.279Z,2.12
2023-03-01T09:17:10.044Z,2.35
2023-03-01T09:19:36.777Z,2.54
2023-03-01T09:22:05.250Z,2.61
2023-03-01T09:24:31.959Z,2.54
2023-03-01T09:26:58.752Z,2.48
2023-03-01T09:29:26.014Z,2.74
2023-03-01T09:31:52.804Z,2.76
2023-03-01T09:34:24.435Z,2.74
2023-03-01T09:36:52.404Z,3.22
2023-03-01T09:39:19.265Z,3.09
2023-03-01T09:41:48.009Z,3.13
2023-03-01T09:44:41.644Z,3.18
2023-03-01T09:47:18.962Z,3.26
2023-03-01T09:49:54.637Z,3.27
2023-03-01T09:52:35.870Z,3.29
2023-03-01T09:55:02.866Z,3.24
2023-03-01T09:57:44.526Z,3.30
2023-03-01T10:00:40.893Z,3.17
2023-03-01T10:03:40.858Z,3.10
2023-03-01T10:06:33.969Z,3.09
2023-03-01T10:09:11.261Z,3.09
2023-03-01T10:11:41.116Z,3.38
2023-03-01T10:14:52.404Z,3.53
2023-03-01T10:17:27.358Z,3.78
2023-03-01T10:19:54.204Z,3.84
2023-03-01T10:22:30.659Z,3.93
2023-03-01T10:25:00.029Z,3.97
2023-03-01T10:27:31.411Z,3.85
2023-03-01T10:30:11.069Z,3.85
2023-03-01T10:32:38.188Z,3.81
2023-03-01T10:35:38.809Z,4.11
2023-03-01T10:38:14.666Z,4.21
2023-03-01T10:40:58.326Z,4.18
2023-03-01T10:43:26.859Z,4.00
2023-03-01T10:45:54.037Z,3.92
2023-03-01T10:48:27.406Z,4.04
2023-03-01T10:51:00.139Z,4.24
2023-03-01T10:53:37.106Z,4.24
2023-03-01T10:56:07.436Z,4.22
2023-03-01T10:58:35.754Z,4.42
2023-03-01T11:01:08.195Z,4.46
2023-03-01T11:03:39.935Z,4.22
2023-03-01T11:06:27.449Z,4.32
2023-03-01T11:08:55.149Z,4.27
2023-03-01T11:11:34.530Z,4.26
2023-03-01T11:14:16.142Z,4.16
2023-03-01T11:17:05.340Z,4.24
2023-03-01T11:19:32.386Z,4.33
2023-03-01T11:22:29.146Z,4.43
2023-03-01T11:25:08.752Z,4.24
2023-03-01T11:27:40.339Z,4.27
2023-03-01T11:30:17.317Z,4.30
2023-03-01T11:32:47.888Z,4.32
2023-03-01T11:35:25.580Z,4.35
2023-03-01T11:38:33.208Z,4.48
2023-03-01T11:41:09.139Z,4.39
2023-03-01T11:44:25.088Z,4.62
2023-03-01T11:47:28.609Z,4.58
2023-03-01T11:50:26.843Z,4.85
2023-03-01T11:53:07.342Z,4.91
2023-03-01T11:55:38.410Z,4.68
2023-03-01T11:58:41.344Z,4.84
2023-03-01T12:01:56.293Z,4.69
2023-03-01T12:04:34.198Z,4.79
2023-03-01T12:07:02.438Z,4.70
2023-03-01T12:09:50.043Z,4.66
2023-03-01T12:12:29.478Z,4.82
2023-03-01T12:15:31.634Z,4.71
2023-03-01T12:18:26.080Z,4.68
2023-03-01T12:21:01.254Z,4.91
2023-03-01T12:23:46.767Z,4.60
2023-03-01T12:26:34.651Z,4.79
2023-03-01T12:29:27.565Z,4.71
2023-03-01T12:32:15.375Z,4.88
2023-03-01T12:34:51.131Z,4.90
2023-03-01T12:37:35.525Z,5.09
2023-03-01T12:40:43.405Z,5.26
2023-03-01T12:44:06.033Z,5.42
2023-03-01T12:46:57.588Z,5.42
2023-03-01T12:49:30.148Z,5.49
2023-03-01T12:52:24.784Z,5.33
2023-03-01T12:54:53.056Z,5.28
2023-03-01T12:57:28.139Z,5.34
2023-03-01T13:00:27.520Z,5.30
2023-03-01T13:03:20.537Z,5.55
2023-03-01T13:06:07.211Z,5.55
2023-03-01T13:09:03.122Z,5.44
2023-03-01T13:11:29.928Z,5.50
2023-03-01T13:14:27.040Z,5.40
2023-03-01T13:16:54.745Z,5.41
2023-03-01T13:19:25.890Z,5.41
2023-03-01T13:21:57.248Z,5.56
2023-03-01T13:24:43.367Z,5.34
2023-03-01T13:27:23.939Z,5.34
2023-03-01T13:29:56.287Z,5.32
2023-03-01T13:32:43.523Z,5.54
2023-03-01T13:35:44.730Z,5.62
2023-03-01T13:38:39.611Z,5.81
2023-03-01T13:41:06.299Z,5.75
2023-03-01T13:43:36.075Z,5.73
2023-03-01T13:46:09.681Z,5.80
2023-03-01T13:48:36.362Z,5.66
2023-03-01T13:51:09.744Z,5.72
2023-03-01T13:53:38.583Z,5.63
2023-03-01T13:56:21.404Z,5.78
2023-03-01T13:58:53.922Z,5.79
2023-03-01T14:01:28.198Z,5.63
2023-03-01T14:03:55.527Z,5.61
2023-03-01T14:06:27.757Z,5.56
2023-03-01T14:09:20.231Z,5.64
2023-03-01T14:12:08.573Z,5.57
2023-03-01T14:14:48.708Z,5.70
2023-03-01T14:17:48.090Z,5.74
2023-03-01T14:20:43.154Z,5.55
2023-03-01T14:23:14.269Z,5.68
2023-03-01T14:25:49.012Z,5.85
2023-03-01T14:28:18.789Z,5.73
2023-03-01T14:30:50.926Z,5.82
2023-03-01T14:33:42.697Z,5.88
2023-03-01T14:36:14.185Z,5.75
2023-03-01T14:38:45.863Z,5.84
2023-03-01T14:41:17.810Z,5.80
2023-03-01T14:43:54.212Z,5.82
2023-03-01T14:46:42.160Z,5.82
2023-03-01T14:49:21.255Z,5.81
2023-03-01T14:51:55.290Z,5.82
2023-03-01T14:54:26.846Z,5.82
2023-03-01T14:56:55.508Z,5.82
2023-03-01T14:59:25.663Z,5.81
2023-03-01T15:01:57.214Z,5.77
2023-03-01T15:04:25.032Z,5.86
2023-03-01T15:06:53.591Z,5.70
2023-03-01T15:09:20.697Z,5.75
2023-03-01T15:11:47.345Z,5.82
2023-03-01T15:14:29.375Z,5.70
2023-03-01T15:16:56.873Z,5.80
2023-03-01T15:19:25.277Z,5.57
2023-03-01T15:21:52.290Z,5.53
2023-03-01T15:24:25.805Z,5.56
2023-03-01T15:27:03.271Z,5.59
2023-03-01T15:29:31.377Z,5.61
2023-03-01T15:32:07.195Z,5.61
2023-03-01T15:34:37.906Z,5.56
2023-03-01T15:37:06.892Z,5.47
2023-03-01T15:39:44.583Z,5.43
2023-03-01T15:42:37.956Z,5.42
2023-03-01T15:45:31.788Z,5.25
2023-03-01T15:48:02.627Z,5.07
2023-03-01T15:50:31.509Z,5.21
2023-03-01T15:52:59.571Z,5.11
2023-03-01T15:55:30.918Z,4.96
2023-03-01T15:58:19.486Z,4.92
2023-03-01T16:00:59.756Z,4.87
2023-03-01T16:03:27.709Z,4.87
2023-03-01T16:05:54.885Z,4.95
2023-03-01T16:08:21.666Z,4.91
2023-03-01T16:10:51.064Z,4.93
2023-03-01T16:13:18.510Z,4.88
2023-03-01T16:15:45.187Z,4.93
2023-03-01T16:18:12.959Z,4.95
2023-03-01T16:20:40.320Z,4.91
2023-03-01T16:23:08.745Z,4.75
2023-03-01T16:25:36.417Z,4.64
2023-03-01T16:28:06.145Z,4.62
2023-03-01T16:30:33.384Z,4.53
2023-03-01T16:33:00.820Z,4.57
2023-03-01T16:35:27.578Z,4.56
2023-03-01T16:37:55.047Z,4.52
2023-03-01T16:40:27.959Z,4.41
2023-03-01T16:42:56.479Z,4.40
2023-03-01T16:45:24.643Z,4.48
2023-03-01T16:47:55.090Z,4.46
2023-03-01T16:50:22.952Z,4.37
2023-03-01T16:52:49.710Z,4.31
2023-03-01T16:55:16.440Z,4.27
2023-03-01T16:57:43.058Z,4.16
2023-03-01T17:00:12.060Z,4.30
2023-03-01T17:02:38.811Z,4.14
2023-03-01T17:05:06.321Z,4.11
2023-03-01T17:07:34.481Z,4.24
2023-03-01T17:10:02.153Z,4.07
2023-03-01T17:12:29.111Z,4.24
2023-03-01T17:14:55.758Z,4.14
2023-03-01T17:17:22.911Z,4.03
2023-03-01T17:19:49.564Z,3.92
2023-03-01T17:22:17.729Z,4.19
2023-03-01T17:24:44.938Z,3.98
2023-03-01T17:27:12.888Z,3.84
2023-03-01T17:29:40.773Z,3.88
2023-03-01T17:32:08.718Z,3.91
2023-03-01T17:34:35.578Z,3.76
2023-03-01T17:37:02.218Z,3.74
2023-03-01T17:39:36.290Z,3.74
2023-03-01T17:42:05.331Z,3.65
2023-03-01T17:44:34.640Z,3.65
2023-03-01T17:47:03.345Z,3.67
2023-03-01T17:49:30.497Z,3.72
2023-03-01T17:51:57.320Z,3.69
2023-03-01T17:54:24.060Z,3.67
2023-03-01T17:56:51.216Z,3.56
2023-03-01T17:59:18.095Z,3.45
2023-03-01T18:01:45.158Z,3.54
2023-03-01T18:04:12.046Z,3.58
2023-03-01T18:06:41.147Z,3.56
2023-03-01T18:09:08.788Z,3.43
2023-03-01T18:11:36.029Z,3.40
2023-03-01T18:14:03.042Z,3.35
2023-03-01T18:16:32.414Z,3.32
2023-03-01T18:19:00.199Z,3.24
2023-03-01T18:21:28.123Z,3.26
2023-03-01T18:23:54.932Z,3.24
2023-03-01T18:26:22.812Z,3.20
2023-03-01T18:28:51.793Z,3.02
2023-03-01T18:31:22.465Z,3.13
2023-03-01T18:33:50.200Z,3.04
2023-03-01T18:36:25.429Z,2.99
2023-03-01T18:38:54.063Z,3.06
2023-03-01T18:41:20.878Z,3.31
2023-03-01T18:43:47.713Z,3.14
2023-03-01T18:46:14.768Z,3.03
2023-03-01T18:48:41.417Z,2.89
2023-03-01T18:51:13.834Z,3.08
2023-03-01T18:53:40.654Z,3.00
2023-03-01T18:56:08.486Z,2.94
2023-03-01T18:58:35.414Z,3.17
2023-03-01T19:01:04.433Z,3.13
2023-03-01T19:03:31.541Z,3.07
2023-03-01T19:06:01.153Z,3.09
2023-03-01T19:08:30.748Z,3.03
2023-03-01T19:11:02.459Z,3.12
2023-03-01T19:13:29.650Z,3.08
2023-03-01T19:16:28.177Z,2.89
2023-03-01T19:19:00.204Z,2.84
2023-03-01T19:21:28.708Z,2.87
2023-03-01T19:23:56.652Z,2.89
2023-03-01T19:26:25.686Z,2.70
2023-03-01T19:28:52.603Z,2.80
2023-03-01T19:31:24.345Z,2.91
2023-03-01T19:33:52.943Z,2.89
2023-03-01T19:36:22.202Z,2.82
2023-03-01T19:38:49.038Z,2.64
2023-03-01T19:41:18.477Z,2.54
2023-03-01T19:43:46.012Z,2.87
2023-03-01T19:46:13.826Z,2.77
2023-03-01T19:48:41.217Z,2.62
2023-03-01T19:51:08.742Z,2.62
2023-03-01T19:53:35.455Z,2.71
2023-03-01T19:56:02.525Z,2.51
2023-03-01T19:58:30.694Z,2.38
2023-03-01T20:01:00.940Z,2.42
2023-03-01T20:03:33.778Z,2.44
2023-03-01T20:06:02.846Z,2.44
2023-03-01T20:08:31.373Z,2.36
2023-03-01T20:11:06.496Z,2.49
2023-03-01T20:13:33.688Z,2.46
2023-03-01T20:16:00.612Z,2.55
2023-03-01T20:18:28.168Z,2.41
2023-03-01T20:20:55.009Z,2.49
2023-03-01T20:23:21.697Z,2.56
2023-03-01T20:25:51.403Z,2.56
2023-03-01T20:28:19.516Z,2.52
2023-03-01T20:30:46.553Z,2.33
2023-03-01T20:33:13.293Z,2.43
2023-03-01T20:35:43.353Z,2.50
2023-03-01T20:38:10.284Z,2.40
2023-03-01T20:40:38.067Z,2.35
2023-03-01T20:43:05.369Z,2.45
2023-03-01T20:45:32.585Z,2.42
2023-03-01T20:48:02.246Z,2.27
2023-03-01T20:50:29.403Z,2.25
2023-03-01T20:52:56.521Z,2.23
2023-03-01T20:55:23.197Z,2.14
2023-03-01T20:57:50.040Z,2.18
2023-03-01T21:00:17.216Z,2.19
2023-03-01T21:02:44.251Z,2.03
2023-03-01T21:05:10.855Z,1.97
2023-03-01T21:07:37.648Z,1.89
2023-03-01T21:10:05.645Z,1.88
2023-03-01T21:12:36.442Z,1.85
2023-03-01T21:15:04.004Z,2.04
2023-03-01T21:17:30.990Z,2.02
2023-03-01T21:19:57.837Z,1.87
2023-03-01T21:22:24.798Z,1.97
2023-03-01T21:24:51.889Z,2.00
2023-03-01T21:27:19.073Z,2.08
2023-03-01T21:29:46.618Z,2.11
2023-03-01T21:32:14.372Z,2.24
2023-03-01T21:34:41.847Z,2.11
2023-03-01T21:37:10.605Z,2.07
2023-03-01T21:39:37.676Z,2.03
2023-03-01T21:42:05.263Z,2.20
2023-03-01T21:44:33.008Z,2.02
2023-03-01T21:46:59.722Z,2.13
2023-03-01T21:49:27.061Z,2.06
2023-03-01T21:51:53.766Z,2.13
2023-03-01T21:54:21.477Z,1.98
2023-03-01T21:56:49.485Z,2.06
2023-03-01T21:59:19.828Z,2.06
2023-03-01T22:01:47.396Z,2.05
2023-03-01T22:04:15.112Z,1.97
2023-03-01T22:06:44.814Z,2.08
2023-03-01T22:09:23.073Z,1.94
2023-03-01T22:11:54.247Z,2.11
2023-03-01T22:14:21.811Z,1.98
2023-03-01T22:16:51.610Z,1.92
2023-03-01T22:19:19.216Z,2.01
2023-03-01T22:21:50.172Z,1.93
2023-03-01T22:24:18.990Z,1.83
2023-03-01T22:26:47.323Z,1.77
2023-03-01T22:29:17.453Z,1.80
2023-03-01T22:31:44.646Z,1.92
2023-03-01T22:34:12.182Z,1.85
2023-03-01T22:36:42.211Z,1.85
2023-03-01T22:39:09.303Z,1.74
2023-03-01T22:41:45.179Z,1.67
2023-03-01T22:44:14.215Z,1.74
2023-03-01T22:46:41.115Z,1.75
2023-03-01T22:49:07.874Z,1.89
2023-03-01T22:51:36.634Z,1.85
2023-03-01T22:54:04.053Z,1.92
2023-03-01T22:56:33.091Z,1.77
2023-03-01T22:59:02.631Z,1.80
2023-03-01T23:01:30.707Z,1.77
2023-03-01T23:03:57.629Z,1.80
2023-03-01T23:06:24.693Z,1.84
2023-03-01T23:08:53.702Z,1.86
2023-03-01T23:11:21.463Z,1.88
2023-03-01T23:13:48.496Z,1.77
2023-03-01T23:16:15.750Z,1.73
2023-03-01T23:18:42.578Z,1.76
2023-03-01T23:21:17.115Z,1.72
2023-03-01T23:23:44.446Z,1.72
2023-03-01T23:26:11.120Z,1.73
2023-03-01T23:28:41.210Z,1.76
2023-03-01T23:31:10.977Z,1.66
2023-03-01T23:33:40.651Z,1.71
2023-03-01T23:36:18.658Z,1.82
2023-03-01T23:38:46.885Z,1.72
2023-03-01T23:41:15.884Z,1.70
2023-03-01T23:43:46.887Z,1.75
2023-03-01T23:46:14.664Z,1.77
2023-03-01T23:48:42.548Z,1.76
2023-03-01T23:51:09.749Z,1.65
2023-03-01T23:53:38.657Z,1.51
2023-03-01T23:56:05.932Z,1.53
2023-03-01T23:58:32.810Z,1.50
